Time;durP1;ratioP1;P1;durP2;ratioP2;P2;SDS_P1;SDS_P2;PMS_P1;PMS_P2;Temp;Humidity;BMP_temperature;BMP_pressure;BME280_temperature;BME280_humidity;BME280_pressure;Samples;Min_cycle;Max_cycle;Signal;HPM_P1;HPM_P2
2023/02/10 00:01:06;;;;;;;15.60;9.25;;;0.80;94.50;;;;;;5094798;28;20102;-77
2023/02/10 00:03:32;;;;;;;12.10;9.03;;;0.90;94.30;;;;;;5107226;28;20023;-78
2023/02/10 00:05:58;;;;;;;11.57;9.13;;;0.80;94.20;;;;;;5105898;28;20386;-78
2023/02/10 00:08:24;;;;;;;10.87;8.93;;;0.80;94.00;;;;;;5107656;27;20023;-78
2023/02/10 00:10:50;;;;;;;13.43;9.53;;;0.80;93.90;;;;;;5090516;28;20023;-78
2023/02/10 00:13:16;;;;;;;15.07;10.13;;;0.80;93.60;;;;;;5111699;28;20482;-79
2023/02/10 00:15:41;;;;;;;15.20;10.30;;;0.80;93.50;;;;;;5112602;28;20028;-79
2023/02/10 00:18:07;;;;;;;11.67;9.43;;;0.80;94.00;;;;;;5097315;28;20024;-79
2023/02/10 00:20:33;;;;;;;13.43;8.83;;;0.80;93.70;;;;;;5112203;28;20102;-78
2023/02/10 00:22:59;;;;;;;12.10;8.87;;;0.80;93.60;;;;;;5146047;27;20016;-78
2023/02/10 00:25:25;;;;;;;11.50;8.70;;;0.80;93.50;;;;;;5109419;28;20428;-78
2023/02/10 00:27:50;;;;;;;13.53;8.20;;;0.80;93.40;;;;;;5103715;28;20485;-78
2023/02/10 00:30:16;;;;;;;10.90;8.80;;;0.80;93.30;;;;;;5099436;28;20136;-78
2023/02/10 00:32:42;;;;;;;8.87;7.93;;;0.80;93.40;;;;;;5097408;28;20023;-78
2023/02/10 00:35:08;;;;;;;10.20;8.00;;;0.80;93.30;;;;;;5112909;28;20028;-78
2023/02/10 00:37:34;;;;;;;14.90;9.43;;;0.80;92.90;;;;;;5125900;27;20031;-78
2023/02/10 00:39:59;;;;;;;11.77;9.07;;;0.80;93.20;;;;;;5111373;28;20027;-80
2023/02/10 00:42:25;;;;;;;10.27;8.40;;;0.80;93.00;;;;;;5148193;27;20020;-79
2023/02/10 00:44:51;;;;;;;12.33;8.90;;;0.70;93.30;;;;;;5134933;27;20024;-79
2023/02/10 00:47:16;;;;;;;11.97;8.30;;;0.70;93.30;;;;;;5100095;28;20165;-81
2023/02/10 00:49:42;;;;;;;11.43;8.37;;;0.70;93.40;;;;;;5150338;27;20450;-79
2023/02/10 00:52:08;;;;;;;10.57;8.43;;;0.70;93.50;;;;;;5102448;28;20024;-78
2023/02/10 00:54:34;;;;;;;11.13;7.90;;;0.70;93.50;;;;;;5131818;27;20020;-79
2023/02/10 00:57:00;;;;;;;15.30;9.03;;;0.80;93.70;;;;;;5096537;28;20386;-80
2023/02/10 00:59:26;;;;;;;11.70;8.70;;;0.70;93.90;;;;;;5096559;28;20614;-79
2023/02/10 01:01:51;;;;;;;12.77;8.77;;;0.80;93.80;;;;;;5104921;28;20023;-80
2023/02/10 01:04:17;;;;;;;14.50;8.90;;;0.90;93.20;;;;;;5116708;28;20027;-78
2023/02/10 01:06:43;;;;;;;12.07;8.87;;;0.80;93.30;;;;;;5116757;28;20536;-79
2023/02/10 01:09:09;;;;;;;10.63;8.37;;;0.80;93.30;;;;;;5115486;28;20024;-80
2023/02/10 01:11:34;;;;;;;12.40;8.00;;;0.70;93.20;;;;;;5104453;28;20096;-79
2023/02/10 01:14:00;;;;;;;10.33;8.70;;;0.60;93.50;;;;;;5096188;28;20119;-79
2023/02/10 01:16:26;;;;;;;9.90;8.37;;;0.60;93.70;;;;;;5108687;28;20027;-78
2023/02/10 01:18:52;;;;;;;11.07;8.17;;;0.60;93.70;;;;;;5149788;27;20028;-79
2023/02/10 01:21:19;;;;;;;12.83;8.57;;;0.50;93.60;;;;;;5140456;27;20028;-78
2023/02/10 01:23:46;;;;;;;10.97;8.77;;;0.50;93.80;;;;;;5102774;28;20515;-78
2023/02/10 01:26:13;;;;;;;12.03;8.70;;;0.50;94.10;;;;;;5104575;28;20026;-78
2023/02/10 01:28:39;;;;;;;11.33;8.70;;;0.50;94.00;;;;;;5114163;28;20374;-79
2023/02/10 01:31:11;;;;;;;12.83;9.70;;;0.60;94.00;;;;;;5115522;28;20058;-78
2023/02/10 01:33:37;;;;;;;12.65;9.13;;;0.50;94.20;;;;;;5115127;28;20093;-78
2023/02/10 01:36:09;;;;;;;13.30;9.13;;;0.50;94.20;;;;;;5097357;28;20020;-81
2023/02/10 01:38:35;;;;;;;15.10;9.67;;;0.50;94.20;;;;;;5095695;28;20061;-79
2023/02/10 01:41:01;;;;;;;14.20;10.07;;;0.50;94.30;;;;;;5095814;28;20449;-75
2023/02/10 01:43:26;;;;;;;13.33;9.70;;;0.60;94.20;;;;;;5108480;28;20442;-75
2023/02/10 01:45:52;;;;;;;13.00;9.77;;;0.60;94.00;;;;;;5145524;27;20045;-75
2023/02/10 01:48:19;;;;;;;12.90;9.67;;;0.60;94.10;;;;;;5104876;28;20024;-75
2023/02/10 01:50:50;;;;;;;12.97;9.80;;;0.60;94.20;;;;;;5100973;28;20050;-75
2023/02/10 01:53:16;;;;;;;13.57;10.00;;;0.60;94.40;;;;;;5101476;28;20038;-75
2023/02/10 01:55:46;;;;;;;13.67;10.10;;;0.60;94.90;;;;;;5102314;28;20028;-75
2023/02/10 01:58:14;;;;;;;16.23;11.00;;;0.50;94.60;;;;;;5101057;28;20036;-75
2023/02/10 02:00:40;;;;;;;18.30;11.87;;;0.50;94.80;;;;;;5100774;28;20024;-75
2023/02/10 02:03:06;;;;;;;15.07;10.57;;;0.40;95.20;;;;;;5101572;28;20727;-75
2023/02/10 02:05:40;;;;;;;14.80;10.80;;;0.50;95.40;;;;;;5100489;28;20521;-76
2023/02/10 02:08:19;;;;;;;15.73;11.07;;;0.50;95.50;;;;;;5100892;28;20026;-75
2023/02/10 02:11:04;;;;;;;15.40;11.67;;;0.50;95.60;;;;;;5100731;28;20028;-75
2023/02/10 02:14:02;;;;;;;17.53;11.13;;;0.50;95.70;;;;;;5101439;28;20028;-75
2023/02/10 02:17:03;;;;;;;15.53;11.67;;;0.50;95.90;;;;;;5065248;28;20044;-75
2023/02/10 02:20:39;;;;;;;15.20;11.67;;;0.50;96.00;;;;;;5105206;28;20035;-75
2023/02/10 02:23:06;;;;;;;15.23;11.07;;;0.60;96.00;;;;;;5109183;28;20039;-75
2023/02/10 02:25:51;;;;;;;15.43;11.60;;;0.60;95.90;;;;;;5105105;28;20028;-75
2023/02/10 02:28:59;;;;;;;18.53;11.67;;;0.60;96.10;;;;;;5101256;28;20518;-75
2023/02/10 02:31:28;;;;;;;16.73;12.03;;;0.60;96.30;;;;;;5107467;28;20051;-75
2023/02/10 02:34:06;;;;;;;16.70;11.70;;;0.60;96.60;;;;;;5100705;28;20054;-75
2023/02/10 02:36:39;;;;;;;15.80;11.33;;;0.50;97.30;;;;;;5099052;28;20050;-75
2023/02/10 02:39:05;;;;;;;15.07;11.43;;;0.60;96.80;;;;;;5101294;28;20024;-75
2023/02/10 02:41:33;;;;;;;16.57;11.30;;;0.60;96.40;;;;;;5102286;28;20024;-75
2023/02/10 02:44:01;;;;;;;17.10;11.77;;;0.60;96.50;;;;;;5101772;28;20020;-75
2023/02/10 02:46:52;;;;;;;15.47;11.60;;;0.60;96.20;;;;;;5100926;28;20020;-75
2023/02/10 02:49:31;;;;;;;15.77;11.50;;;0.60;96.00;;;;;;5104968;28;20020;-75
2023/02/10 02:52:09;;;;;;;18.37;11.23;;;0.70;94.70;;;;;;5101641;27;20020;-75
2023/02/10 02:54:47;;;;;;;15.70;10.87;;;0.80;94.40;;;;;;5104681;28;20070;-75
2023/02/10 02:57:19;;;;;;;15.20;10.67;;;0.80;94.60;;;;;;5103179;28;20070;-75
2023/02/10 02:59:51;;;;;;;15.70;11.93;;;0.70;94.80;;;;;;5103341;28;20034;-75
2023/02/10 03:02:19;;;;;;;17.50;11.53;;;0.70;95.50;;;;;;5102836;28;20031;-75
2023/02/10 03:04:46;;;;;;;14.67;10.73;;;0.60;95.50;;;;;;5117020;27;20059;-75
2023/02/10 03:07:11;;;;;;;15.13;11.03;;;0.60;95.40;;;;;;5104325;28;20027;-75
2023/02/10 03:09:37;;;;;;;18.47;12.27;;;0.60;95.50;;;;;;5104417;28;20039;-75
2023/02/10 03:12:04;;;;;;;17.50;11.10;;;0.60;95.50;;;;;;5102664;28;20425;-76
2023/02/10 03:14:29;;;;;;;12.07;9.97;;;0.60;95.60;;;;;;5099580;28;20032;-76
2023/02/10 03:16:55;;;;;;;13.93;10.23;;;0.60;95.60;;;;;;5103308;28;20027;-76
2023/02/10 03:19:21;;;;;;;13.63;10.50;;;0.60;95.60;;;;;;5102598;28;20118;-76
2023/02/10 03:21:47;;;;;;;14.07;10.73;;;0.60;95.70;;;;;;5135647;27;20027;-76
2023/02/10 03:24:13;;;;;;;13.07;10.07;;;0.60;95.70;;;;;;5133634;27;20027;-76
2023/02/10 03:26:39;;;;;;;15.03;11.10;;;0.50;95.80;;;;;;5102244;28;20023;-75
2023/02/10 03:29:05;;;;;;;15.50;11.43;;;0.40;98.70;;;;;;5100060;28;20382;-76
2023/02/10 03:31:31;;;;;;;15.47;12.13;;;0.20;99.90;;;;;;5100123;28;20048;-75
2023/02/10 03:33:57;;;;;;;18.33;12.23;;;0.20;99.90;;;;;;5103929;28;20375;-75
2023/02/10 03:36:23;;;;;;;20.30;13.03;;;0.20;99.90;;;;;;5102713;28;20408;-75
2023/02/10 03:38:48;;;;;;;19.23;12.10;;;0.10;99.90;;;;;;5104501;28;20027;-75
2023/02/10 03:41:14;;;;;;;19.60;12.33;;;0.00;99.90;;;;;;5135129;27;20467;-75
2023/02/10 03:43:41;;;;;;;16.90;11.30;;;-0.10;99.90;;;;;;5103587;28;20027;-75
2023/02/10 03:46:08;;;;;;;14.37;11.23;;;0.00;99.90;;;;;;5104044;28;20386;-75
2023/02/10 03:48:34;;;;;;;17.07;11.23;;;0.00;99.90;;;;;;5099931;28;20077;-75
2023/02/10 03:51:02;;;;;;;17.43;11.57;;;0.00;99.90;;;;;;5096785;28;20032;-75
2023/02/10 03:53:29;;;;;;;16.40;12.40;;;0.00;99.90;;;;;;5095464;28;20024;-76
2023/02/10 03:55:55;;;;;;;18.10;11.93;;;-0.10;99.90;;;;;;5099456;28;20024;-76
2023/02/10 03:58:21;;;;;;;17.30;11.97;;;-0.10;99.90;;;;;;5099807;28;20031;-75
2023/02/10 04:00:47;;;;;;;14.83;10.73;;;-0.10;99.90;;;;;;5098068;28;20027;-75
2023/02/10 04:03:13;;;;;;;18.07;13.00;;;-0.20;99.90;;;;;;5102924;28;20023;-75
2023/02/10 04:05:39;;;;;;;21.63;13.70;;;-0.30;99.90;;;;;;5103836;28;20028;-75
2023/02/10 04:08:05;;;;;;;21.43;15.00;;;-0.40;99.90;;;;;;5099441;28;20024;-75
2023/02/10 04:10:31;;;;;;;21.63;14.30;;;-0.40;99.90;;;;;;5101583;28;20028;-75
2023/02/10 04:12:56;;;;;;;22.57;14.03;;;-0.30;99.90;;;;;;5141948;27;20114;-75
2023/02/10 04:15:22;;;;;;;19.97;13.17;;;-0.30;99.90;;;;;;5097876;28;20036;-75
2023/02/10 04:17:48;;;;;;;22.43;14.07;;;-0.20;99.90;;;;;;5098559;28;20120;-75
2023/02/10 04:20:14;;;;;;;19.87;13.50;;;-0.20;99.90;;;;;;5101003;28;20248;-76
2023/02/10 04:22:39;;;;;;;18.60;13.40;;;-0.20;99.90;;;;;;5104918;28;20494;-75
2023/02/10 04:25:06;;;;;;;19.13;13.03;;;-0.20;99.90;;;;;;5101109;28;20032;-75
2023/02/10 04:27:32;;;;;;;18.23;12.77;;;-0.20;99.90;;;;;;5098734;28;20043;-75
2023/02/10 04:29:58;;;;;;;26.50;15.80;;;-0.30;99.90;;;;;;5104156;28;20475;-75
2023/02/10 04:32:23;;;;;;;33.40;18.30;;;-0.30;99.90;;;;;;5099811;28;20020;-76
2023/02/10 04:34:49;;;;;;;91.47;40.47;;;-0.30;99.90;;;;;;5100830;28;20077;-75
2023/02/10 04:37:15;;;;;;;50.03;25.37;;;-0.20;99.90;;;;;;5102951;28;20024;-76
2023/02/10 04:39:41;;;;;;;37.03;20.23;;;-0.20;99.90;;;;;;5099972;28;20024;-75
2023/02/10 04:42:07;;;;;;;33.60;19.33;;;-0.20;99.90;;;;;;5101961;28;20080;-75
2023/02/10 04:44:32;;;;;;;27.97;17.53;;;-0.10;99.90;;;;;;5099007;28;20024;-75
2023/02/10 04:46:58;;;;;;;28.47;16.90;;;-0.20;99.90;;;;;;5102309;28;20589;-75
2023/02/10 04:49:24;;;;;;;36.53;22.20;;;-0.20;99.90;;;;;;5099715;28;20016;-75
2023/02/10 04:51:50;;;;;;;48.90;27.27;;;-0.30;99.90;;;;;;5101529;28;20050;-75
2023/02/10 04:54:16;;;;;;;40.80;22.90;;;-0.30;99.90;;;;;;5100872;28;20471;-75
2023/02/10 04:56:42;;;;;;;36.30;21.00;;;-0.30;99.70;;;;;;5100721;28;20025;-75
2023/02/10 04:59:07;;;;;;;28.17;18.33;;;-0.20;99.40;;;;;;5102826;28;20111;-76
2023/02/10 05:01:33;;;;;;;18.47;12.57;;;-0.10;98.80;;;;;;5098187;28;20123;-75
2023/02/10 05:03:59;;;;;;;35.93;21.87;;;0.00;98.10;;;;;;5100639;28;20053;-75
2023/02/10 05:06:25;;;;;;;48.63;29.27;;;0.00;98.40;;;;;;5099824;28;20034;-75
2023/02/10 05:08:50;;;;;;;40.40;25.73;;;0.00;98.90;;;;;;5100359;28;20111;-75
2023/02/10 05:11:18;;;;;;;26.17;16.83;;;0.10;98.50;;;;;;5102616;28;20027;-75
2023/02/10 05:13:44;;;;;;;21.53;12.27;;;0.20;97.80;;;;;;5100103;28;20567;-75
2023/02/10 05:16:11;;;;;;;18.87;11.57;;;0.20;97.20;;;;;;5103248;28;20395;-75
2023/02/10 05:18:39;;;;;;;13.33;10.70;;;0.20;96.90;;;;;;5100128;28;20081;-75
2023/02/10 05:21:07;;;;;;;15.67;11.43;;;0.20;96.30;;;;;;5099815;28;20032;-75
2023/02/10 05:23:33;;;;;;;13.43;10.93;;;0.30;96.40;;;;;;5100517;28;20024;-75
2023/02/10 05:25:59;;;;;;;15.70;11.20;;;0.30;96.40;;;;;;5098450;28;20024;-75
2023/02/10 05:28:24;;;;;;;15.53;11.40;;;0.30;96.40;;;;;;5104688;28;20484;-75
2023/02/10 05:30:50;;;;;;;18.70;12.30;;;0.30;96.50;;;;;;5104762;28;20048;-75
2023/02/10 05:33:16;;;;;;;32.57;18.87;;;0.30;96.40;;;;;;5102315;28;20031;-76
2023/02/10 05:35:41;;;;;;;64.73;35.10;;;0.40;97.00;;;;;;5104326;28;20024;-75
2023/02/10 05:38:07;;;;;;;73.90;40.50;;;0.20;98.00;;;;;;5102585;28;20475;-75
2023/02/10 05:40:33;;;;;;;33.73;20.53;;;0.20;98.20;;;;;;5106061;28;20059;-76
2023/02/10 05:42:58;;;;;;;64.70;36.80;;;0.20;97.40;;;;;;5102850;28;20024;-76
2023/02/10 05:45:24;;;;;;;43.40;25.27;;;0.10;97.80;;;;;;5138043;27;20105;-75
2023/02/10 05:47:51;;;;;;;25.57;15.43;;;0.20;97.80;;;;;;5103402;28;20032;-76
2023/02/10 05:50:18;;;;;;;21.03;13.10;;;0.20;97.30;;;;;;5136463;27;20035;-75
2023/02/10 05:52:44;;;;;;;20.90;12.83;;;0.20;96.90;;;;;;5106074;28;20024;-76
2023/02/10 05:55:09;;;;;;;21.87;13.17;;;0.30;96.40;;;;;;5101972;28;20032;-75
2023/02/10 05:57:36;;;;;;;22.10;13.77;;;0.30;96.40;;;;;;5137362;27;20513;-75
2023/02/10 06:00:03;;;;;;;23.77;14.33;;;0.30;96.30;;;;;;5110266;28;20487;-75
2023/02/10 06:02:29;;;;;;;21.60;13.70;;;0.30;96.40;;;;;;5112904;28;20031;-75
2023/02/10 06:04:55;;;;;;;28.73;18.07;;;0.30;96.50;;;;;;5111559;28;20049;-75
2023/02/10 06:07:20;;;;;;;39.20;22.80;;;0.20;97.40;;;;;;5111492;28;20024;-75
2023/02/10 06:09:46;;;;;;;44.00;26.47;;;0.10;98.40;;;;;;5110812;28;20541;-75
2023/02/10 06:12:12;;;;;;;34.97;21.53;;;0.00;99.60;;;;;;5111473;28;20501;-76
2023/02/10 06:14:38;;;;;;;27.83;16.87;;;0.00;99.70;;;;;;5110876;28;20446;-75
2023/02/10 06:17:09;;;;;;;29.27;17.43;;;-0.10;98.60;;;;;;5112769;28;20019;-75
2023/02/10 06:19:42;;;;;;;26.42;16.13;;;-0.10;98.40;;;;;;5111538;28;20020;-75
2023/02/10 06:22:09;;;;;;;22.53;15.13;;;-0.10;98.20;;;;;;5108795;28;20301;-75
2023/02/10 06:24:35;;;;;;;34.93;21.53;;;-0.10;98.10;;;;;;5111651;27;20499;-75
2023/02/10 06:27:01;;;;;;;50.77;28.20;;;0.00;98.60;;;;;;5142098;27;20073;-76
2023/02/10 06:29:27;;;;;;;48.70;28.30;;;-0.10;99.40;;;;;;5111152;28;20051;-76
2023/02/10 06:31:52;;;;;;;52.70;29.37;;;-0.10;99.90;;;;;;5107645;28;20137;-76
2023/02/10 06:34:18;;;;;;;50.77;29.50;;;-0.30;99.90;;;;;;5103975;28;20034;-75
2023/02/10 06:36:44;;;;;;;51.90;30.60;;;-0.30;99.90;;;;;;5099322;28;20028;-76
2023/02/10 06:39:09;;;;;;;58.93;32.80;;;-0.40;99.90;;;;;;5104467;28;20479;-75
2023/02/10 06:41:35;;;;;;;58.17;31.97;;;-0.40;99.90;;;;;;5100156;28;20031;-75
2023/02/10 06:44:01;;;;;;;48.10;28.87;;;-0.30;99.90;;;;;;5103124;28;20020;-75
2023/02/10 06:46:27;;;;;;;50.00;29.33;;;-0.30;99.90;;;;;;5101318;28;20035;-75
2023/02/10 06:48:52;;;;;;;59.60;33.47;;;-0.40;99.90;;;;;;5102093;28;20254;-76
2023/02/10 06:51:18;;;;;;;109.33;96.50;;;-0.40;99.90;;;;;;5100307;28;20043;-76
2023/02/10 06:53:45;;;;;;;83.37;56.30;;;-0.40;99.90;;;;;;5092841;28;20078;-75
2023/02/10 06:56:11;;;;;;;80.10;46.43;;;-0.50;99.90;;;;;;5094064;28;20028;-75
2023/02/10 06:58:37;;;;;;;92.10;53.33;;;-0.60;99.90;;;;;;5098374;28;20467;-79
2023/02/10 07:01:12;;;;;;;104.40;58.60;;;-0.70;99.90;;;;;;5137633;27;20042;-79
2023/02/10 07:03:38;;;;;;;106.73;59.90;;;-0.70;99.90;;;;;;5100804;28;20491;-79
2023/02/10 07:06:04;;;;;;;116.43;65.67;;;-0.80;99.90;;;;;;5098786;28;20030;-79
2023/02/10 07:08:30;;;;;;;115.50;65.43;;;-0.70;99.90;;;;;;5097475;28;20114;-79
2023/02/10 07:10:56;;;;;;;126.20;69.50;;;-0.70;99.90;;;;;;5103300;28;21193;-79
2023/02/10 07:13:22;;;;;;;134.87;73.40;;;-0.60;99.90;;;;;;5101272;28;20024;-79
2023/02/10 07:15:47;;;;;;;143.83;78.20;;;-0.50;99.90;;;;;;5100737;28;20065;-79
2023/02/10 07:18:13;;;;;;;154.70;84.53;;;-0.60;99.90;;;;;;5133524;27;20113;-79
2023/02/10 07:20:39;;;;;;;148.30;84.67;;;-0.70;99.90;;;;;;5102093;28;20096;-79
2023/02/10 07:23:05;;;;;;;159.50;88.53;;;-0.60;99.90;;;;;;5101949;28;20471;-79
2023/02/10 07:25:31;;;;;;;165.47;92.47;;;-0.50;99.90;;;;;;5099557;28;20099;-79
2023/02/10 07:27:56;;;;;;;178.60;94.67;;;-0.40;99.90;;;;;;5101398;28;20066;-79
2023/02/10 07:30:22;;;;;;;177.57;93.03;;;-0.30;99.90;;;;;;5103378;28;20405;-79
2023/02/10 07:32:48;;;;;;;168.93;92.60;;;-0.20;99.90;;;;;;5105146;28;20035;-82
2023/02/10 07:35:14;;;;;;;168.80;95.73;;;-0.20;99.90;;;;;;5104731;28;20035;-81
2023/02/10 07:37:40;;;;;;;171.53;95.93;;;-0.10;99.90;;;;;;5135382;27;20034;-76
2023/02/10 07:40:06;;;;;;;196.73;108.53;;;0.00;99.90;;;;;;5102669;28;20242;-76
2023/02/10 07:42:34;;;;;;;202.17;111.27;;;0.00;99.90;;;;;;5100560;28;20028;-75
2023/02/10 07:44:59;;;;;;;223.43;125.87;;;0.00;99.90;;;;;;5103171;28;20451;-75
2023/02/10 07:47:25;;;;;;;269.20;145.57;;;0.00;99.90;;;;;;5099797;28;20110;-76
2023/02/10 07:49:53;;;;;;;282.77;155.73;;;0.00;99.90;;;;;;5102320;28;20045;-76
2023/02/10 07:52:22;;;;;;;286.60;156.57;;;0.00;99.90;;;;;;5101640;28;20031;-76
2023/02/10 07:54:48;;;;;;;285.03;157.10;;;0.10;99.90;;;;;;5102824;28;20026;-75
2023/02/10 07:57:14;;;;;;;287.00;157.40;;;0.20;99.90;;;;;;5100748;28;20050;-76
2023/02/10 07:59:40;;;;;;;281.63;152.13;;;0.20;99.90;;;;;;5101089;28;20028;-76
2023/02/10 08:02:08;;;;;;;263.50;142.20;;;0.30;99.90;;;;;;5102055;28;20035;-76
2023/02/10 08:04:34;;;;;;;241.77;134.50;;;0.30;99.90;;;;;;5100864;28;20077;-76
2023/02/10 08:07:00;;;;;;;240.90;136.03;;;0.40;99.90;;;;;;5101705;28;20416;-76
2023/02/10 08:09:25;;;;;;;244.80;129.60;;;0.40;99.90;;;;;;5101086;28;20107;-76
2023/02/10 08:11:51;;;;;;;239.80;132.30;;;0.50;99.90;;;;;;5100099;28;20031;-76
2023/02/10 08:14:16;;;;;;;246.23;137.33;;;0.50;99.90;;;;;;5103038;28;20399;-76
2023/02/10 08:16:42;;;;;;;240.23;132.13;;;0.60;99.90;;;;;;5103296;28;20024;-76
2023/02/10 08:19:08;;;;;;;216.50;119.30;;;0.60;99.90;;;;;;5100248;28;20028;-75
2023/02/10 08:21:33;;;;;;;200.27;105.97;;;0.60;99.90;;;;;;5103766;28;20024;-76
2023/02/10 08:23:59;;;;;;;166.97;92.40;;;0.60;99.90;;;;;;5103531;28;20045;-75
2023/02/10 08:26:25;;;;;;;155.40;84.33;;;0.60;99.90;;;;;;5131366;27;20492;-75
2023/02/10 08:28:51;;;;;;;147.07;80.90;;;0.70;99.90;;;;;;5101582;28;20028;-75
2023/02/10 08:31:17;;;;;;;137.50;76.60;;;0.70;99.90;;;;;;5101871;28;20082;-75
2023/02/10 08:33:43;;;;;;;143.60;79.63;;;0.70;99.90;;;;;;5100121;28;20537;-76
2023/02/10 08:36:11;;;;;;;136.80;77.00;;;0.70;99.90;;;;;;5102774;28;20038;-75
2023/02/10 08:38:37;;;;;;;141.97;78.33;;;0.80;99.90;;;;;;5101107;28;20085;-76
2023/02/10 08:41:03;;;;;;;133.83;71.93;;;0.80;99.90;;;;;;5099596;28;20041;-76
2023/02/10 08:43:30;;;;;;;128.00;71.40;;;0.90;99.90;;;;;;5103118;28;20032;-75
2023/02/10 08:46:00;;;;;;;126.87;73.57;;;0.90;99.90;;;;;;5102903;28;20080;-76
2023/02/10 08:48:26;;;;;;;134.10;72.83;;;1.00;99.90;;;;;;5100139;28;20383;-75
2023/02/10 08:50:53;;;;;;;124.07;70.83;;;1.00;99.90;;;;;;5102177;28;20031;-76
2023/02/10 08:53:19;;;;;;;130.47;71.10;;;1.10;99.90;;;;;;5099318;28;20551;-75
2023/02/10 08:55:55;;;;;;;137.40;73.33;;;1.10;99.90;;;;;;5102100;28;20076;-75
2023/02/10 08:58:21;;;;;;;141.47;76.57;;;1.20;99.90;;;;;;5097489;28;20085;-75
2023/02/10 09:00:46;;;;;;;126.83;71.13;;;1.20;99.90;;;;;;5101445;28;20027;-75
2023/02/10 09:03:12;;;;;;;128.60;69.80;;;1.20;99.90;;;;;;5101739;28;20107;-75
2023/02/10 09:05:38;;;;;;;127.57;71.73;;;1.20;99.90;;;;;;5105284;28;20509;-76
2023/02/10 09:08:03;;;;;;;128.27;70.80;;;1.30;99.90;;;;;;5101623;28;20020;-75
2023/02/10 09:10:29;;;;;;;131.70;71.60;;;1.40;99.90;;;;;;5106736;28;20020;-75
2023/02/10 09:12:55;;;;;;;114.80;65.60;;;1.50;99.90;;;;;;5103511;28;20028;-75
2023/02/10 09:15:21;;;;;;;114.50;64.87;;;1.50;99.90;;;;;;5105457;28;20027;-76
2023/02/10 09:17:46;;;;;;;114.07;63.70;;;1.50;99.90;;;;;;5105177;28;20110;-75
2023/02/10 09:20:12;;;;;;;116.37;63.30;;;1.60;99.90;;;;;;5102597;28;20027;-75
2023/02/10 09:22:38;;;;;;;111.70;61.30;;;1.70;99.90;;;;;;5106541;28;20016;-75
2023/02/10 09:25:04;;;;;;;108.50;62.90;;;1.70;99.90;;;;;;5102535;28;20020;-75
2023/02/10 09:27:29;;;;;;;115.80;61.90;;;1.70;99.90;;;;;;5104424;28;20048;-75
2023/02/10 09:29:55;;;;;;;114.93;64.10;;;1.80;99.90;;;;;;5104146;28;20105;-76
2023/02/10 09:32:21;;;;;;;115.43;64.43;;;1.90;99.90;;;;;;5102065;28;20403;-75
2023/02/10 09:34:47;;;;;;;111.07;62.37;;;2.00;99.90;;;;;;5106928;28;20027;-75
2023/02/10 09:37:12;;;;;;;107.23;61.20;;;2.00;99.90;;;;;;5107037;28;20495;-75
2023/02/10 09:39:38;;;;;;;106.40;58.07;;;2.10;99.90;;;;;;5105492;28;20047;-75
2023/02/10 09:42:17;;;;;;;96.53;55.10;;;2.10;99.90;;;;;;5103556;28;20024;-76
2023/02/10 09:44:51;;;;;;;107.77;57.40;;;2.10;99.90;;;;;;5104049;28;20042;-76
2023/02/10 09:47:23;;;;;;;101.63;57.30;;;2.20;99.90;;;;;;5101374;28;20135;-75
2023/02/10 09:50:19;;;;;;;96.93;54.22;;;2.30;99.90;;;;;;5103532;28;20384;-75
2023/02/10 09:53:06;;;;;;;98.97;54.57;;;2.30;99.90;;;;;;5137800;27;20051;-75
2023/02/10 09:55:38;;;;;;;97.70;54.67;;;2.40;99.90;;;;;;5101708;28;20020;-75
2023/02/10 09:58:10;;;;;;;97.67;52.73;;;2.40;99.90;;;;;;5105900;28;20016;-75
2023/02/10 10:00:40;;;;;;;106.18;59.95;;;2.40;99.90;;;;;;5102967;28;20028;-75
2023/02/10 10:03:13;;;;;;;115.30;62.33;;;2.50;99.90;;;;;;5101276;28;20024;-75
2023/02/10 10:05:46;;;;;;;109.47;60.60;;;2.50;99.60;;;;;;5103165;28;20023;-75
2023/02/10 10:08:23;;;;;;;122.17;67.23;;;2.60;99.00;;;;;;5101099;28;20097;-75
2023/02/10 10:10:50;;;;;;;117.50;65.20;;;2.80;98.10;;;;;;5103727;28;20032;-75
2023/02/10 10:13:24;;;;;;;118.33;66.63;;;2.80;98.00;;;;;;5109484;28;20031;-75
2023/02/10 10:16:08;;;;;;;116.83;64.03;;;2.90;96.60;;;;;;5101525;28;20027;-75
2023/02/10 10:19:00;;;;;;;113.03;62.07;;;3.00;95.80;;;;;;5101603;28;20080;-75
2023/02/10 10:21:41;;;;;;;113.43;61.80;;;3.00;96.30;;;;;;5099532;28;20020;-75
2023/02/10 10:24:12;;;;;;;102.93;57.83;;;3.10;95.70;;;;;;5102001;28;20028;-75
2023/02/10 10:27:13;;;;;;;103.03;58.67;;;3.20;96.10;;;;;;5102404;28;20063;-75
2023/02/10 10:29:52;;;;;;;112.53;57.23;;;3.20;95.20;;;;;;5104956;28;20015;-76
2023/02/10 10:32:24;;;;;;;96.13;53.20;;;3.30;95.70;;;;;;5099841;28;20047;-75
2023/02/10 10:34:53;;;;;;;104.05;57.15;;;3.40;95.40;;;;;;5104903;28;20030;-75
2023/02/10 10:37:22;;;;;;;107.07;60.07;;;3.40;95.20;;;;;;5102945;28;20031;-75
2023/02/10 10:40:10;;;;;;;98.50;56.47;;;3.50;95.20;;;;;;5104948;28;20062;-75
2023/02/10 10:42:49;;;;;;;98.47;52.33;;;3.60;95.40;;;;;;5099750;28;20077;-75
2023/02/10 10:45:21;;;;;;;101.43;55.30;;;3.60;95.50;;;;;;5136013;27;20048;-75
2023/02/10 10:47:52;;;;;;;99.35;57.17;;;3.70;94.00;;;;;;5101750;28;20475;-75
2023/02/10 10:50:20;;;;;;;102.03;56.03;;;3.70;93.60;;;;;;5102407;28;20053;-75
2023/02/10 10:52:52;;;;;;;97.33;54.07;;;3.80;93.60;;;;;;5109275;28;20037;-75
2023/02/10 10:55:56;;;;;;;109.30;58.53;;;3.90;93.40;;;;;;5105168;28;20451;-75
2023/02/10 10:58:34;;;;;;;108.30;61.20;;;3.90;93.70;;;;;;5070958;28;20444;-75
2023/02/10 11:01:02;;;;;;;117.23;59.67;;;3.90;93.20;;;;;;5100742;28;20024;-75
2023/02/10 11:03:28;;;;;;;103.03;54.73;;;4.10;91.70;;;;;;5101482;28;20030;-75
2023/02/10 11:06:03;;;;;;;92.05;51.85;;;4.20;92.30;;;;;;5102710;28;20490;-75
2023/02/10 11:08:32;;;;;;;85.13;49.28;;;4.30;92.20;;;;;;5100933;28;20024;-75
2023/02/10 11:11:01;;;;;;;80.40;46.35;;;4.40;91.60;;;;;;5102098;28;20028;-74
2023/02/10 11:13:29;;;;;;;67.57;39.35;;;4.50;90.90;;;;;;5104401;28;20032;-75
2023/02/10 11:16:03;;;;;;;69.93;39.35;;;4.50;87.70;;;;;;5101978;28;20428;-75
2023/02/10 11:18:29;;;;;;;76.15;41.60;;;4.60;86.40;;;;;;5100028;28;20039;-75
2023/02/10 11:21:02;;;;;;;72.05;39.33;;;4.70;89.00;;;;;;5099672;28;20025;-76
2023/02/10 11:23:29;;;;;;;60.97;34.45;;;4.80;88.20;;;;;;5098941;28;20025;-76
2023/02/10 11:26:16;;;;;;;64.30;34.13;;;4.90;85.90;;;;;;5098053;28;20020;-76
2023/02/10 11:28:42;;;;;;;54.70;31.92;;;4.90;84.40;;;;;;5136658;27;20031;-75
2023/02/10 11:31:25;;;;;;;51.88;30.65;;;4.90;85.50;;;;;;5100608;28;20044;-76
2023/02/10 11:34:21;;;;;;;52.70;31.63;;;5.10;84.60;;;;;;5100714;28;20031;-76
2023/02/10 11:36:50;;;;;;;54.85;32.13;;;5.20;81.70;;;;;;5100995;28;20028;-76
2023/02/10 11:39:31;;;;;;;54.13;29.67;;;5.20;82.60;;;;;;5100880;28;20046;-76
2023/02/10 11:42:06;;;;;;;49.95;28.63;;;5.30;84.70;;;;;;5102503;28;20066;-76
2023/02/10 11:44:32;;;;;;;51.40;27.13;;;5.40;82.20;;;;;;5103416;28;20020;-76
2023/02/10 11:47:05;;;;;;;48.05;27.63;;;5.50;82.40;;;;;;5100477;28;20025;-76
2023/02/10 11:49:33;;;;;;;47.53;26.98;;;5.60;82.40;;;;;;5101860;28;20016;-76
2023/02/10 11:52:01;;;;;;;45.72;25.42;;;5.70;81.00;;;;;;5102568;28;20031;-76
2023/02/10 11:54:28;;;;;;;40.50;24.42;;;5.80;82.00;;;;;;5100445;28;20085;-76
2023/02/10 12:00:19;;;;;;;41.95;25.35;;;6.00;81.00;;;;;;5103711;28;20045;-76
2023/02/10 12:03:18;;;;;;;44.83;26.35;;;6.10;80.60;;;;;;5103587;28;20123;-76
2023/02/10 12:06:20;;;;;;;52.42;27.08;;;6.10;81.10;;;;;;5101131;28;20020;-76
2023/02/10 12:09:11;;;;;;;44.80;25.52;;;6.20;81.50;;;;;;5103384;28;20031;-76
2023/02/10 12:11:43;;;;;;;43.95;26.50;;;6.30;81.90;;;;;;5103348;28;20417;-76
2023/02/10 12:14:39;;;;;;;44.20;24.50;;;6.20;80.10;;;;;;5109246;28;20544;-76
2023/02/10 12:17:17;;;;;;;53.30;28.88;;;6.30;78.30;;;;;;5097324;28;20092;-75
2023/02/10 12:20:13;;;;;;;42.05;25.88;;;6.30;76.30;;;;;;5098015;28;20398;-75
2023/02/10 12:22:58;;;;;;;45.42;26.00;;;6.40;79.00;;;;;;5107883;28;20109;-76
2023/02/10 12:25:32;;;;;;;50.92;27.20;;;6.40;79.80;;;;;;5097938;28;20040;-76
2023/02/10 12:28:24;;;;;;;46.60;27.20;;;6.50;78.60;;;;;;5100743;28;20047;-76
2023/02/10 12:31:05;;;;;;;46.78;28.55;;;6.50;76.40;;;;;;5099464;28;20131;-75
2023/02/10 12:33:42;;;;;;;53.47;29.10;;;6.60;77.40;;;;;;5099980;28;20016;-76
2023/02/10 12:36:38;;;;;;;50.65;29.38;;;6.60;77.70;;;;;;5104266;28;20050;-76
2023/02/10 12:39:29;;;;;;;45.33;26.48;;;6.60;76.20;;;;;;5107273;28;20026;-76
2023/02/10 12:42:13;;;;;;;43.65;26.92;;;6.60;77.60;;;;;;5105881;28;20032;-76
2023/02/10 12:44:45;;;;;;;44.38;25.80;;;6.70;76.50;;;;;;5110818;28;20024;-76
2023/02/10 12:47:19;;;;;;;47.87;25.50;;;6.70;76.80;;;;;;5112166;28;20020;-80
2023/02/10 12:50:13;;;;;;;40.05;25.58;;;6.70;76.70;;;;;;5107718;28;20024;-79